createdAt,value
2023-01-28T00:01:18.816Z,100024.25
2023-01-28T00:03:45.399Z,100027.41
2023-01-28T00:06:14.605Z,100030.66
2023-01-28T00:08:41.674Z,100026.09
2023-01-28T00:11:10.823Z,100027.97
2023-01-28T00:13:39.251Z,100021.81
2023-01-28T00:16:07.547Z,100025.78
2023-01-28T00:18:34.999Z,100033.56
2023-01-28T00:21:03.539Z,100030.88
2023-01-28T00:23:32.311Z,100025.22
2023-01-28T00:25:59.330Z,100014.97
2023-01-28T00:28:26.188Z,100019.84
2023-01-28T00:30:54.154Z,100013.69
2023-01-28T00:33:21.012Z,100020.91
2023-01-28T00:35:47.582Z,100015.56
2023-01-28T00:38:14.208Z,100012.88
2023-01-28T00:40:40.909Z,100006.69
2023-01-28T00:43:07.439Z,100011.81
2023-01-28T00:45:33.961Z,100007.28
2023-01-28T00:48:01.925Z,100007.75
2023-01-28T00:50:28.457Z,100009.38
2023-01-28T00:52:55.047Z,99999.13
2023-01-28T00:55:21.613Z,99997.78
2023-01-28T00:57:48.419Z,99998.97
2023-01-28T01:00:15.576Z,99993.50
2023-01-28T01:02:42.512Z,99988.63
2023-01-28T01:05:10.684Z,99989.34
2023-01-28T01:07:37.300Z,99993.00
2023-01-28T01:10:04.774Z,99993.44
2023-01-28T01:12:31.272Z,99985.44
2023-01-28T01:14:57.827Z,99984.84
2023-01-28T01:17:24.536Z,99982.06
2023-01-28T01:19:51.151Z,99991.03
2023-01-28T01:22:19.053Z,99996.88
2023-01-28T01:24:47.375Z,99989.09
2023-01-28T01:27:14.046Z,99998.25
2023-01-28T01:29:40.609Z,100000.69
2023-01-28T01:32:07.349Z,100004.19
2023-01-28T01:34:34.093Z,100006.63
2023-01-28T01:37:00.698Z,100005.22
2023-01-28T01:39:28.679Z,100007.56
2023-01-28T01:41:55.194Z,100008.03
2023-01-28T01:44:52.018Z,100004.69
2023-01-28T01:47:19.852Z,99998.53
2023-01-28T01:49:46.816Z,100003.53
2023-01-28T01:52:18.595Z,99995.41
2023-01-28T01:54:52.456Z,99993.53
2023-01-28T01:57:24.243Z,99990.97
2023-01-28T01:59:51.021Z,99999.72
2023-01-28T02:02:17.761Z,99998.09
2023-01-28T02:04:45.319Z,100012.38
2023-01-28T02:07:15.556Z,100007.84
2023-01-28T02:09:42.175Z,100006.78
2023-01-28T02:12:13.344Z,100005.28
2023-01-28T02:14:47.669Z,100010.03
2023-01-28T02:17:14.497Z,100017.03
2023-01-28T02:19:48.174Z,100021.34
2023-01-28T02:22:56.185Z,100027.72
2023-01-28T02:25:41.243Z,100032.34
2023-01-28T02:28:23.026Z,100031.31
2023-01-28T02:30:55.264Z,100037.00
2023-01-28T02:33:30.600Z,100038.41
2023-01-28T02:36:02.687Z,100029.56
2023-01-28T02:38:36.264Z,100032.47
2023-01-28T02:41:06.806Z,100036.06
2023-01-28T02:43:37.339Z,100031.53
2023-01-28T02:46:15.722Z,100037.69
2023-01-28T02:48:42.399Z,100040.97
2023-01-28T02:51:18.521Z,100042.00
2023-01-28T02:53:51.664Z,100041.19
2023-01-28T02:56:26.737Z,100041.19
2023-01-28T02:59:01.487Z,100044.09
2023-01-28T03:01:36.712Z,100043.28
2023-01-28T03:04:09.189Z,100053.16
2023-01-28T03:06:41.162Z,100055.59
2023-01-28T03:09:11.554Z,100054.25
2023-01-28T03:11:42.057Z,100061.19
2023-01-28T03:14:11.609Z,100066.53
2023-01-28T03:16:38.924Z,100068.41
2023-01-28T03:19:05.486Z,100062.72
2023-01-28T03:21:36.620Z,100055.50
2023-01-28T03:24:07.073Z,100061.69
2023-01-28T03:26:38.752Z,100063.75
2023-01-28T03:29:08.795Z,100062.38
2023-01-28T03:31:38.244Z,100064.72
2023-01-28T03:34:06.011Z,100062.59
2023-01-28T03:36:33.007Z,100063.41
2023-01-28T03:38:59.770Z,100063.91
2023-01-28T03:41:26.697Z,100062.84
2023-01-28T03:43:53.718Z,100063.06
2023-01-28T03:46:20.760Z,100067.63
2023-01-28T03:48:48.697Z,100066.56
2023-01-28T03:51:15.387Z,100073.28
2023-01-28T03:53:41.948Z,100074.38
2023-01-28T03:56:08.583Z,100075.97
2023-01-28T03:58:35.136Z,100077.81
2023-01-28T04:01:01.870Z,100065.53
2023-01-28T04:03:28.440Z,100075.41
2023-01-28T04:06:01.230Z,100072.72
2023-01-28T04:08:27.961Z,100079.72
2023-01-28T04:10:54.530Z,100078.91
2023-01-28T04:13:21.175Z,100083.44
2023-01-28T04:15:48.032Z,100076.22
2023-01-28T04:18:14.812Z,100079.94
2023-01-28T04:20:41.555Z,100082.63
2023-01-28T04:23:09.527Z,100082.38
2023-01-28T04:25:36.280Z,100083.75
2023-01-28T04:28:02.908Z,100088.53
2023-01-28T04:30:29.533Z,100089.34
2023-01-28T04:32:56.161Z,100076.22
2023-01-28T04:35:22.711Z,100074.59
2023-01-28T04:37:49.407Z,100079.72
2023-01-28T04:40:17.848Z,100078.31
2023-01-28T04:42:53.361Z,100080.97
2023-01-28T04:45:19.949Z,100087.38
2023-01-28T04:47:46.694Z,100089.00
2023-01-28T04:50:13.353Z,100080.16
2023-01-28T04:52:40.022Z,100083.06
2023-01-28T04:55:07.595Z,100084.13
2023-01-28T04:57:35.505Z,100079.00
2023-01-28T05:00:02.456Z,100080.63
2023-01-28T05:02:29.156Z,100078.19
2023-01-28T05:04:55.649Z,100081.44
2023-01-28T05:07:22.305Z,100082.25
2023-01-28T05:09:48.865Z,100082.72
2023-01-28T05:12:15.617Z,100080.03
2023-01-28T05:14:43.513Z,100092.59
2023-01-28T05:17:10.140Z,100088.53
2023-01-28T05:19:36.704Z,100091.56
2023-01-28T05:22:03.435Z,100089.69
2023-01-28T05:24:30.097Z,100079.22
2023-01-28T05:26:56.939Z,100086.47
2023-01-28T05:29:23.457Z,100089.38
2023-01-28T05:31:51.357Z,100101.91
2023-01-28T05:34:17.902Z,100099.47
2023-01-28T05:36:44.462Z,100097.38
2023-01-28T05:39:11.046Z,100092.25
2023-01-28T05:41:37.776Z,100093.91
2023-01-28T05:44:04.560Z,100095.28
2023-01-28T05:46:31.067Z,100099.25
2023-01-28T05:48:59.035Z,100105.97
2023-01-28T05:51:25.602Z,100107.84
2023-01-28T05:53:52.208Z,100107.03
2023-01-28T05:56:18.745Z,100110.97
2023-01-28T05:58:45.271Z,100111.22
2023-01-28T06:01:11.794Z,100105.03
2023-01-28T06:03:38.321Z,100114.47
2023-01-28T06:06:06.551Z,100121.22
2023-01-28T06:08:33.157Z,100112.03
2023-01-28T06:10:59.688Z,100112.84
2023-01-28T06:13:26.226Z,100117.75
2023-01-28T06:15:52.845Z,100119.81
2023-01-28T06:18:19.356Z,100125.41
2023-01-28T06:20:46.069Z,100123.75
2023-01-28T06:23:14.302Z,100118.63
2023-01-28T06:25:41.174Z,100122.34
2023-01-28T06:28:07.734Z,100136.09
2023-01-28T06:30:34.325Z,100133.88
2023-01-28T06:33:01.015Z,100141.06
2023-01-28T06:35:27.530Z,100139.44
2023-01-28T06:37:54.304Z,100138.41
2023-01-28T06:40:22.424Z,100138.16
2023-01-28T06:42:49.522Z,100146.41
2023-01-28T06:45:16.298Z,100141.56
2023-01-28T06:47:42.849Z,100151.44
2023-01-28T06:50:10.815Z,100152.69
2023-01-28T06:52:37.357Z,100150.25
2023-01-28T06:55:04.500Z,100151.06
2023-01-28T06:57:32.373Z,100159.09
2023-01-28T06:59:58.943Z,100166.06
2023-01-28T07:02:27.662Z,100165.03
2023-01-28T07:04:54.326Z,100177.59
2023-01-28T07:07:21.002Z,100174.09
2023-01-28T07:09:47.544Z,100176.75
2023-01-28T07:12:14.267Z,100179.00
2023-01-28T07:14:42.208Z,100178.19
2023-01-28T07:17:08.793Z,100174.69
2023-01-28T07:19:35.505Z,100180.25
2023-01-28T07:22:02.022Z,100178.41
2023-01-28T07:24:28.747Z,100172.00
2023-01-28T07:26:55.353Z,100182.72
2023-01-28T07:29:22.558Z,100175.50
2023-01-28T07:31:50.503Z,100176.31
2023-01-28T07:34:17.240Z,100173.63
2023-01-28T07:36:43.919Z,100182.00
2023-01-28T07:39:10.490Z,100181.78
2023-01-28T07:41:37.015Z,100178.66
2023-01-28T07:44:03.980Z,100178.16
2023-01-28T07:46:30.535Z,100172.59
2023-01-28T07:48:58.494Z,100179.00
2023-01-28T07:51:25.034Z,100179.59
2023-01-28T07:53:51.584Z,100182.25
2023-01-28T07:56:18.165Z,100167.63
2023-01-28T07:58:44.716Z,100175.88
2023-01-28T08:01:11.371Z,100184.03
2023-01-28T08:03:37.953Z,100180.88
2023-01-28T08:06:06.263Z,100170.75
2023-01-28T08:08:32.847Z,100170.53
2023-01-28T08:10:59.439Z,100169.00
2023-01-28T08:13:26.236Z,100181.13
2023-01-28T08:15:55.216Z,100171.59
2023-01-28T08:18:21.906Z,100174.81
2023-01-28T08:20:48.469Z,100190.88
2023-01-28T08:23:18.168Z,100185.31
2023-01-28T08:25:45.090Z,100189.84
2023-01-28T08:28:12.134Z,100179.72
2023-01-28T08:30:39.498Z,100190.19
2023-01-28T08:33:07.405Z,100192.66
2023-01-28T08:35:34.940Z,100196.69
2023-01-28T08:38:03.186Z,100189.25
2023-01-28T08:40:31.328Z,100192.06
2023-01-28T08:42:58.226Z,100192.41
2023-01-28T08:45:27.904Z,100187.63
2023-01-28T08:47:56.738Z,100200.34
2023-01-28T08:50:25.438Z,100202.53
2023-01-28T08:52:56.028Z,100199.16
2023-01-28T08:55:22.938Z,100197.63
2023-01-28T08:57:50.787Z,100207.28
2023-01-28T09:00:18.342Z,100205.56
2023-01-28T09:02:45.092Z,100197.75
2023-01-28T09:05:12.122Z,100200.75
2023-01-28T09:07:39.043Z,100199.94
2023-01-28T09:10:06.399Z,100205.78
2023-01-28T09:12:33.060Z,100198.91
2023-01-28T09:15:00.937Z,100208.56
2023-01-28T09:17:27.695Z,100208.94
2023-01-28T09:19:54.242Z,100207.41
2023-01-28T09:22:21.337Z,100204.03
2023-01-28T09:24:48.035Z,100200.53
2023-01-28T09:27:14.648Z,100213.91
2023-01-28T09:29:41.205Z,100210.97
2023-01-28T09:32:09.191Z,100222.13
2023-01-28T09:34:35.835Z,100221.59
2023-01-28T09:37:02.436Z,100236.13
2023-01-28T09:39:29.043Z,100227.25
2023-01-28T09:42:09.598Z,100242.88
2023-01-28T09:44:47.313Z,100256.03
2023-01-28T09:47:22.477Z,100256.28
2023-01-28T09:49:51.541Z,100259.31
2023-01-28T09:52:21.727Z,100268.16
2023-01-28T09:54:50.498Z,100281.19
2023-01-28T09:57:22.797Z,100275.03
2023-01-28T09:59:49.462Z,100271.91
2023-01-28T10:02:41.909Z,100272.81
2023-01-28T10:05:19.980Z,100275.97
2023-01-28T10:07:57.302Z,100263.97
2023-01-28T10:10:29.349Z,100265.50
2023-01-28T10:13:07.779Z,100261.03
2023-01-28T10:15:57.088Z,100267.22
2023-01-28T10:18:34.156Z,100268.25
2023-01-28T10:21:08.157Z,100258.59
2023-01-28T10:23:46.146Z,100257.63
2023-01-28T10:26:21.533Z,100261.84
2023-01-28T10:28:53.992Z,100265.66
2023-01-28T10:31:22.073Z,100268.44
2023-01-28T10:33:50.232Z,100259.03
2023-01-28T10:36:17.492Z,100254.84
2023-01-28T10:38:44.477Z,100260.31
2023-01-28T10:41:17.123Z,100262.75
2023-01-28T10:43:44.076Z,100268.00
2023-01-28T10:46:16.842Z,100256.34
2023-01-28T10:48:55.139Z,100260.66
2023-01-28T10:51:30.874Z,100256.31
2023-01-28T10:53:57.387Z,100261.53
2023-01-28T10:56:27.288Z,100254.44
2023-01-28T10:58:58.749Z,100250.34
2023-01-28T11:01:26.152Z,100262.22
2023-01-28T11:03:56.639Z,100254.75
2023-01-28T11:06:28.183Z,100265.47
2023-01-28T11:08:55.243Z,100262.34
2023-01-28T11:11:25.901Z,100269.41
2023-01-28T11:13:54.551Z,100270.69
2023-01-28T11:16:21.985Z,100267.84
2023-01-28T11:18:52.350Z,100261.91
2023-01-28T11:21:22.643Z,100270.16
2023-01-28T11:23:52.217Z,100267.84
2023-01-28T11:26:22.477Z,100263.97
2023-01-28T11:28:50.106Z,100261.41
2023-01-28T11:31:19.024Z,100265.41
2023-01-28T11:33:50.233Z,100264.91
2023-01-28T11:36:19.510Z,100257.59
2023-01-28T11:38:53.567Z,100261.97
2023-01-28T11:41:27.305Z,100266.31
2023-01-28T11:43:54.593Z,100253.13
2023-01-28T11:46:43.743Z,100251.13
2023-01-28T11:49:18.792Z,100247.19
2023-01-28T11:51:53.518Z,100248.88
2023-01-28T11:54:35.533Z,100253.44
2023-01-28T11:57:17.647Z,100241.97
2023-01-28T12:00:00.616Z,100241.50
2023-01-28T12:02:53.435Z,100232.72
2023-01-28T12:05:36.675Z,100226.25
2023-01-28T12:08:09.427Z,100233.25
2023-01-28T12:10:44.462Z,100224.28
2023-01-28T12:13:24.995Z,100232.75
2023-01-28T12:16:18.980Z,100223.41
2023-01-28T12:19:16.693Z,100233.00
2023-01-28T12:22:00.040Z,100232.00
2023-01-28T12:24:37.823Z,100234.13
2023-01-28T12:27:26.257Z,100244.31
2023-01-28T12:30:02.075Z,100229.09
2023-01-28T12:32:42.154Z,100237.81
2023-01-28T12:35:29.575Z,100233.59
2023-01-28T12:38:04.606Z,100234.25
2023-01-28T12:40:53.579Z,100251.22
2023-01-28T12:43:27.077Z,100246.72
2023-01-28T12:45:57.951Z,100252.22
2023-01-28T12:48:30.534Z,100254.91
2023-01-28T12:51:02.143Z,100241.34
2023-01-28T12:53:36.715Z,100245.56
2023-01-28T12:56:08.478Z,100241.72
2023-01-28T12:58:44.851Z,100241.25
2023-01-28T13:01:15.850Z,100244.50
2023-01-28T13:03:53.658Z,100238.63
2023-01-28T13:06:29.773Z,100247.34
2023-01-28T13:09:02.037Z,100241.00
2023-01-28T13:11:34.581Z,100239.81
2023-01-28T13:14:03.909Z,100232.38
2023-01-28T13:16:37.277Z,100234.94
2023-01-28T13:19:07.360Z,100235.50
2023-01-28T13:21:47.359Z,100236.06
2023-01-28T13:24:32.078Z,100236.47
2023-01-28T13:26:58.951Z,100231.44
2023-01-28T13:29:32.323Z,100229.94
2023-01-28T13:32:00.672Z,100224.47
2023-01-28T13:34:34.285Z,100224.66
2023-01-28T13:37:05.882Z,100224.66
2023-01-28T13:39:35.372Z,100227.91
2023-01-28T13:42:20.451Z,100225.97
2023-01-28T13:44:48.655Z,100228.50
2023-01-28T13:47:23.451Z,100224.03
2023-01-28T13:49:55.626Z,100226.03
2023-01-28T13:52:27.247Z,100227.06
2023-01-28T13:54:59.942Z,100228.94
2023-01-28T13:57:57.801Z,100218.38
2023-01-28T14:00:34.184Z,100222.75
2023-01-28T14:03:42.948Z,100215.31
2023-01-28T14:06:45.236Z,100216.69
2023-01-28T14:09:26.947Z,100220.31
2023-01-28T14:12:28.121Z,100220.44
2023-01-28T14:15:39.824Z,100211.13
2023-01-28T14:18:20.583Z,100210.66
2023-01-28T14:20:47.617Z,100224.41
2023-01-28T14:23:17.659Z,100212.25
2023-01-28T14:25:56.430Z,100197.94
2023-01-28T14:28:34.420Z,100205.63
2023-01-28T14:31:06.632Z,100180.66
2023-01-28T14:33:36.939Z,100186.59
2023-01-28T14:36:04.373Z,100184.16
2023-01-28T14:38:38.392Z,100187.03
2023-01-28T14:41:05.872Z,100169.09
2023-01-28T14:43:32.548Z,100177.97
2023-01-28T14:46:12.503Z,100190.19
2023-01-28T14:48:50.628Z,100200.44
2023-01-28T14:51:36.642Z,100197.25
2023-01-28T14:54:17.831Z,100191.53
2023-01-28T14:57:12.545Z,100193.97
2023-01-28T14:59:43.819Z,100186.41
2023-01-28T15:02:17.139Z,100200.63
2023-01-28T15:04:45.270Z,100208.06
2023-01-28T15:07:19.932Z,100200.41
2023-01-28T15:09:47.162Z,100194.13
2023-01-28T15:12:15.736Z,100187.47
2023-01-28T15:14:44.314Z,100195.75
2023-01-28T15:17:22.869Z,100213.56
2023-01-28T15:19:52.810Z,100213.34
2023-01-28T15:22:23.828Z,100203.91
2023-01-28T15:24:50.976Z,100192.72
2023-01-28T15:27:27.470Z,100208.00
2023-01-28T15:29:55.626Z,100209.50
2023-01-28T15:32:25.920Z,100226.16
2023-01-28T15:34:54.768Z,100239.19
2023-01-28T15:37:22.215Z,100231.06
2023-01-28T15:39:59.748Z,100221.59
2023-01-28T15:42:26.600Z,100226.03
2023-01-28T15:44:53.372Z,100232.53
2023-01-28T15:47:23.875Z,100228.81
2023-01-28T15:49:53.341Z,100229.97
2023-01-28T15:52:28.850Z,100218.72
2023-01-28T15:54:58.352Z,100231.50
2023-01-28T15:57:29.228Z,100237.28
2023-01-28T16:00:09.866Z,100230.06
2023-01-28T16:02:43.450Z,100229.63
2023-01-28T16:05:25.849Z,100232.88
2023-01-28T16:07:55.569Z,100230.88
2023-01-28T16:10:25.156Z,100235.53
2023-01-28T16:12:53.805Z,100234.47
2023-01-28T16:15:22.077Z,100228.66
2023-01-28T16:17:52.489Z,100217.13
2023-01-28T16:20:21.912Z,100227.94
2023-01-28T16:22:48.875Z,100225.59
2023-01-28T16:25:29.785Z,100237.06
2023-01-28T16:27:56.919Z,100248.69
2023-01-28T16:30:23.661Z,100248.78
2023-01-28T16:32:50.927Z,100247.97
2023-01-28T16:35:19.651Z,100250.19
2023-01-28T16:37:47.588Z,100248.69
2023-01-28T16:40:16.946Z,100250.19
2023-01-28T16:42:45.353Z,100245.50
2023-01-28T16:45:17.994Z,100241.22
2023-01-28T16:47:45.136Z,100252.38
2023-01-28T16:50:13.060Z,100252.22
2023-01-28T16:52:40.078Z,100246.28
2023-01-28T16:55:07.425Z,100248.50
2023-01-28T16:57:35.751Z,100253.25
2023-01-28T17:00:04.364Z,100255.31
2023-01-28T17:02:31.026Z,100262.78
2023-01-28T17:04:57.539Z,100255.81
2023-01-28T17:07:24.079Z,100263.81
2023-01-28T17:09:50.710Z,100274.50
2023-01-28T17:12:17.333Z,100279.63
2023-01-28T17:14:43.867Z,100289.50
2023-01-28T17:17:11.805Z,100298.09
2023-01-28T17:19:38.375Z,100301.81
2023-01-28T17:22:05.116Z,100303.00
2023-01-28T17:24:31.727Z,100302.63
2023-01-28T17:26:58.449Z,100308.78
2023-01-28T17:29:25.155Z,100323.44
2023-01-28T17:31:51.764Z,100321.56
2023-01-28T17:34:19.728Z,100312.53
2023-01-28T17:36:46.340Z,100312.75
2023-01-28T17:39:12.897Z,100322.59
2023-01-28T17:41:39.721Z,100330.41
2023-01-28T17:44:06.445Z,100336.78
2023-01-28T17:46:32.980Z,100339.69
2023-01-28T17:49:02.568Z,100335.38
2023-01-28T17:51:30.470Z,100330.25
2023-01-28T17:53:56.982Z,100317.09
2023-01-28T17:56:25.967Z,100315.72
2023-01-28T17:58:54.207Z,100312.66
2023-01-28T18:01:21.709Z,100309.38
2023-01-28T18:03:48.462Z,100316.44
2023-01-28T18:06:15.995Z,100323.25
2023-01-28T18:08:44.433Z,100321.41
2023-01-28T18:11:13.015Z,100326.16
2023-01-28T18:13:41.381Z,100323.13
2023-01-28T18:16:11.096Z,100320.06
2023-01-28T18:18:37.722Z,100334.25
2023-01-28T18:21:06.045Z,100329.94
2023-01-28T18:23:33.821Z,100325.06
2023-01-28T18:26:03.204Z,100334.09
2023-01-28T18:28:30.243Z,100340.47
2023-01-28T18:31:05.113Z,100332.25
2023-01-28T18:33:31.852Z,100333.72
2023-01-28T18:35:58.408Z,100333.31
2023-01-28T18:38:25.108Z,100332.97
2023-01-28T18:40:54.936Z,100325.41
2023-01-28T18:43:23.053Z,100327.91
2023-01-28T18:45:49.918Z,100345.19
2023-01-28T18:48:16.890Z,100346.44
2023-01-28T18:50:50.358Z,100346.66
2023-01-28T18:53:16.967Z,100347.94
2023-01-28T18:55:43.724Z,100343.75
2023-01-28T18:58:10.592Z,100346.81
2023-01-28T19:00:38.896Z,100350.09
2023-01-28T19:03:05.794Z,100336.28
2023-01-28T19:05:35.233Z,100353.81
2023-01-28T19:08:02.073Z,100347.84
2023-01-28T19:10:28.668Z,100355.88
2023-01-28T19:12:55.437Z,100360.59
2023-01-28T19:15:22.386Z,100365.13
2023-01-28T19:17:50.384Z,100357.72
2023-01-28T19:20:17.522Z,100360.00
2023-01-28T19:22:44.433Z,100361.28
2023-01-28T19:25:11.082Z,100359.03
2023-01-28T19:27:37.870Z,100365.41
2023-01-28T19:30:06.046Z,100355.97
2023-01-28T19:32:32.705Z,100367.72
2023-01-28T19:35:00.669Z,100358.63
2023-01-28T19:37:27.353Z,100348.97
2023-01-28T19:39:53.903Z,100354.09
2023-01-28T19:42:20.604Z,100340.94
2023-01-28T19:44:47.109Z,100359.78
2023-01-28T19:47:13.688Z,100359.78
2023-01-28T19:49:40.293Z,100365.50
2023-01-28T19:52:08.244Z,100358.31
2023-01-28T19:54:34.821Z,100369.44
2023-01-28T19:57:01.372Z,100366.97
2023-01-28T19:59:28.016Z,100359.56
2023-01-28T20:01:54.695Z,100354.66
2023-01-28T20:04:21.340Z,100361.63
2023-01-28T20:06:49.143Z,100368.25
2023-01-28T20:09:18.581Z,100364.97
2023-01-28T20:11:45.133Z,100359.84
2023-01-28T20:14:11.804Z,100369.91
2023-01-28T20:16:38.348Z,100369.09
2023-01-28T20:19:06.652Z,100367.25
2023-01-28T20:21:34.734Z,100367.66
2023-01-28T20:24:02.572Z,100377.91
2023-01-28T20:26:32.780Z,100385.50
2023-01-28T20:29:00.572Z,100376.25
2023-01-28T20:31:27.416Z,100367.44
2023-01-28T20:33:54.042Z,100378.75
2023-01-28T20:36:20.641Z,100376.28
2023-01-28T20:38:48.091Z,100379.41
2023-01-28T20:41:17.140Z,100372.66
2023-01-28T20:43:45.385Z,100375.72
2023-01-28T20:46:13.500Z,100362.94
2023-01-28T20:48:40.334Z,100365.63
2023-01-28T20:51:08.293Z,100374.22
2023-01-28T20:53:35.448Z,100373.81
2023-01-28T20:56:02.300Z,100374.22
2023-01-28T20:58:28.913Z,100370.13
2023-01-28T21:00:56.828Z,100366.88
2023-01-28T21:03:23.700Z,100368.94
2023-01-28T21:05:50.303Z,100362.59
2023-01-28T21:08:17.176Z,100371.19
2023-01-28T21:10:44.217Z,100363.81
2023-01-28T21:13:11.739Z,100366.28
2023-01-28T21:15:38.631Z,100359.72
2023-01-28T21:18:06.876Z,100356.47
2023-01-28T21:20:38.342Z,100355.66
2023-01-28T21:23:04.977Z,100361.22
2023-01-28T21:25:32.779Z,100350.16
2023-01-28T21:27:59.423Z,100346.06
2023-01-28T21:30:26.037Z,100348.97
2023-01-28T21:32:52.695Z,100342.00
2023-01-28T21:35:20.820Z,100342.41
2023-01-28T21:37:49.288Z,100342.63
2023-01-28T21:40:16.278Z,100330.31
2023-01-28T21:42:45.582Z,100342.25
2023-01-28T21:45:14.129Z,100332.41
2023-01-28T21:47:40.842Z,100344.47
2023-01-28T21:50:08.082Z,100337.50
2023-01-28T21:52:37.190Z,100342.25
2023-01-28T21:57:42.481Z,100349.66
2023-01-28T22:00:10.624Z,100356.22
2023-01-28T22:02:37.276Z,100353.16
2023-01-28T22:05:04.333Z,100356.91
2023-01-28T22:07:31.013Z,100364.09
2023-01-28T22:09:58.989Z,100361.63
2023-01-28T22:12:25.740Z,100350.13
2023-01-28T22:14:52.379Z,100346.88
2023-01-28T22:17:19.060Z,100343.38
2023-01-28T22:19:45.706Z,100335.38
2023-01-28T22:22:12.244Z,100335.38
2023-01-28T22:24:38.838Z,100338.25
2023-01-28T22:27:06.800Z,100337.22
2023-01-28T22:29:33.410Z,100329.22
2023-01-28T22:32:00.172Z,100326.13
2023-01-28T22:34:26.722Z,100325.53
2023-01-28T22:36:53.314Z,100321.88
2023-01-28T22:39:19.987Z,100326.81
2023-01-28T22:41:46.777Z,100340.56
2023-01-28T22:44:15.008Z,100341.22
2023-01-28T22:46:41.820Z,100349.84
2023-01-28T22:49:10.314Z,100341.91
2023-01-28T22:51:37.084Z,100353.22
2023-01-28T22:54:03.837Z,100347.09
2023-01-28T22:56:31.419Z,100348.78
2023-01-28T22:58:59.904Z,100341.63
2023-01-28T23:01:28.579Z,100349.22
2023-01-28T23:03:55.523Z,100343.91
2023-01-28T23:06:23.727Z,100337.13
2023-01-28T23:08:51.374Z,100335.75
2023-01-28T23:11:18.677Z,100330.41
2023-01-28T23:13:45.285Z,100340.69
2023-01-28T23:16:11.875Z,100343.16
2023-01-28T23:18:39.730Z,100346.44
2023-01-28T23:21:14.491Z,100343.59
2023-01-28T23:23:41.043Z,100347.53
2023-01-28T23:26:07.593Z,100353.28
2023-01-28T23:28:34.140Z,100356.19
2023-01-28T23:31:01.488Z,100353.53
2023-01-28T23:33:28.371Z,100352.94
2023-01-28T23:35:56.481Z,100352.94
2023-01-28T23:38:23.029Z,100350.91
2023-01-28T23:40:49.551Z,100352.75
2023-01-28T23:43:16.282Z,100354.38
2023-01-28T23:45:42.837Z,100352.34
2023-01-28T23:48:09.789Z,100354.81
2023-01-28T23:50:36.379Z,100353.38
2023-01-28T23:53:04.246Z,100352.59
2023-01-28T23:55:30.968Z,100360.56
2023-01-28T23:57:57.509Z,100356.06
